sensor_id;sensor_type;location;lat;lon;timestamp;pressure;altitude;pressure_sealevel;temperature;humidity
79538;BME280;68989;52.032;5.152;2023-06-14T00:01:51;101631.74;;;27.45;28.74
79538;BME280;68989;52.032;5.152;2023-06-14T00:04:18;101631.59;;;27.39;28.68
79538;BME280;68989;52.032;5.152;2023-06-14T00:06:46;101633.34;;;27.38;28.67
79538;BME280;68989;52.032;5.152;2023-06-14T00:09:14;101635.08;;;27.40;28.63
79538;BME280;68989;52.032;5.152;2023-06-14T00:11:41;101636.34;;;27.33;28.72
79538;BME280;68989;52.032;5.152;2023-06-14T00:14:09;101636.60;;;27.28;28.81
79538;BME280;68989;52.032;5.152;2023-06-14T00:16:35;101638.68;;;27.28;28.80
79538;BME280;68989;52.032;5.152;2023-06-14T00:19:02;101640.52;;;27.28;28.74
79538;BME280;68989;52.032;5.152;2023-06-14T00:21:30;101638.88;;;27.18;28.97
79538;BME280;68989;52.032;5.152;2023-06-14T00:23:58;101640.27;;;27.15;28.95
79538;BME280;68989;52.032;5.152;2023-06-14T00:26:26;101640.19;;;27.13;28.97
79538;BME280;68989;52.032;5.152;2023-06-14T00:28:54;101640.36;;;27.08;29.03
79538;BME280;68989;52.032;5.152;2023-06-14T00:31:21;101640.19;;;27.04;29.04
79538;BME280;68989;52.032;5.152;2023-06-14T00:33:48;101638.24;;;26.92;29.22
79538;BME280;68989;52.032;5.152;2023-06-14T00:36:15;101638.42;;;26.91;29.22
79538;BME280;68989;52.032;5.152;2023-06-14T00:38:43;101637.05;;;26.91;29.12
79538;BME280;68989;52.032;5.152;2023-06-14T00:41:10;101639.08;;;26.95;29.19
79538;BME280;68989;52.032;5.152;2023-06-14T00:43:37;101639.13;;;27.02;29.16
79538;BME280;68989;52.032;5.152;2023-06-14T00:46:03;101641.91;;;27.10;28.98
79538;BME280;68989;52.032;5.152;2023-06-14T00:48:31;101641.62;;;27.12;28.91
79538;BME280;68989;52.032;5.152;2023-06-14T00:50:58;101642.13;;;27.13;28.97
79538;BME280;68989;52.032;5.152;2023-06-14T00:53:26;101643.04;;;27.17;28.90
79538;BME280;68989;52.032;5.152;2023-06-14T00:55:53;101643.93;;;27.19;28.79
79538;BME280;68989;52.032;5.152;2023-06-14T00:58:22;101641.81;;;27.17;28.72
79538;BME280;68989;52.032;5.152;2023-06-14T01:02:19;101638.44;;;27.08;28.98
79538;BME280;68989;52.032;5.152;2023-06-14T01:04:48;101640.01;;;27.07;28.92
79538;BME280;68989;52.032;5.152;2023-06-14T01:07:25;101641.35;;;27.04;28.98
79538;BME280;68989;52.032;5.152;2023-06-14T01:10:06;101642.63;;;27.04;29.03
79538;BME280;68989;52.032;5.152;2023-06-14T01:12:41;101646.20;;;27.07;29.02
79538;BME280;68989;52.032;5.152;2023-06-14T01:15:12;101644.71;;;27.09;28.91
79538;BME280;68989;52.032;5.152;2023-06-14T01:17:39;101642.51;;;27.08;28.92
79538;BME280;68989;52.032;5.152;2023-06-14T01:20:08;101640.40;;;27.07;28.95
79538;BME280;68989;52.032;5.152;2023-06-14T01:22:36;101640.68;;;27.06;28.93
79538;BME280;68989;52.032;5.152;2023-06-14T01:25:04;101637.33;;;27.05;28.99
79538;BME280;68989;52.032;5.152;2023-06-14T01:27:32;101639.86;;;27.03;28.97
79538;BME280;68989;52.032;5.152;2023-06-14T01:30:00;101639.37;;;26.99;29.01
79538;BME280;68989;52.032;5.152;2023-06-14T01:32:27;101636.86;;;26.90;29.12
79538;BME280;68989;52.032;5.152;2023-06-14T01:34:56;101639.17;;;26.81;29.31
79538;BME280;68989;52.032;5.152;2023-06-14T01:37:23;101638.69;;;26.74;29.34
79538;BME280;68989;52.032;5.152;2023-06-14T01:39:52;101640.49;;;26.69;29.41
79538;BME280;68989;52.032;5.152;2023-06-14T01:42:20;101641.51;;;26.65;29.45
79538;BME280;68989;52.032;5.152;2023-06-14T01:44:52;101639.81;;;26.64;29.47
79538;BME280;68989;52.032;5.152;2023-06-14T01:47:21;101641.04;;;26.60;29.45
79538;BME280;68989;52.032;5.152;2023-06-14T01:49:48;101640.72;;;26.56;29.51
79538;BME280;68989;52.032;5.152;2023-06-14T01:52:16;101639.19;;;26.53;29.64
79538;BME280;68989;52.032;5.152;2023-06-14T01:54:43;101638.40;;;26.54;29.59
79538;BME280;68989;52.032;5.152;2023-06-14T01:57:11;101638.60;;;26.56;29.49
79538;BME280;68989;52.032;5.152;2023-06-14T01:59:38;101638.84;;;26.54;29.46
79538;BME280;68989;52.032;5.152;2023-06-14T02:02:05;101636.07;;;26.52;29.55
79538;BME280;68989;52.032;5.152;2023-06-14T02:04:33;101636.50;;;26.46;29.63
79538;BME280;68989;52.032;5.152;2023-06-14T02:07:00;101634.68;;;26.38;29.70
79538;BME280;68989;52.032;5.152;2023-06-14T02:09:27;101630.68;;;26.32;29.81
79538;BME280;68989;52.032;5.152;2023-06-14T02:11:54;101630.63;;;26.30;29.77
79538;BME280;68989;52.032;5.152;2023-06-14T02:14:21;101630.76;;;26.21;29.90
79538;BME280;68989;52.032;5.152;2023-06-14T02:16:48;101631.46;;;26.15;30.00
79538;BME280;68989;52.032;5.152;2023-06-14T02:19:16;101628.48;;;26.04;30.13
79538;BME280;68989;52.032;5.152;2023-06-14T02:21:44;101628.00;;;25.92;30.30
79538;BME280;68989;52.032;5.152;2023-06-14T02:24:11;101630.18;;;25.89;30.33
79538;BME280;68989;52.032;5.152;2023-06-14T02:26:38;101627.59;;;25.89;30.33
79538;BME280;68989;52.032;5.152;2023-06-14T02:29:05;101632.44;;;25.89;30.34
79538;BME280;68989;52.032;5.152;2023-06-14T02:31:33;101635.01;;;25.90;30.24
79538;BME280;68989;52.032;5.152;2023-06-14T02:34:00;101635.76;;;25.91;30.25
79538;BME280;68989;52.032;5.152;2023-06-14T02:36:26;101635.29;;;25.92;30.25
79538;BME280;68989;52.032;5.152;2023-06-14T02:38:53;101635.84;;;25.91;30.21
79538;BME280;68989;52.032;5.152;2023-06-14T02:41:20;101636.29;;;25.91;30.21
79538;BME280;68989;52.032;5.152;2023-06-14T02:43:47;101636.54;;;25.91;30.20
79538;BME280;68989;52.032;5.152;2023-06-14T02:46:14;101637.70;;;25.90;30.20
79538;BME280;68989;52.032;5.152;2023-06-14T02:48:40;101641.79;;;25.85;30.20
79538;BME280;68989;52.032;5.152;2023-06-14T02:51:08;101645.74;;;25.71;30.43
79538;BME280;68989;52.032;5.152;2023-06-14T02:53:35;101646.32;;;25.60;30.57
79538;BME280;68989;52.032;5.152;2023-06-14T02:56:01;101647.99;;;25.55;30.67
79538;BME280;68989;52.032;5.152;2023-06-14T02:58:28;101649.58;;;25.49;30.73
79538;BME280;68989;52.032;5.152;2023-06-14T03:00:55;101650.25;;;25.44;30.87
79538;BME280;68989;52.032;5.152;2023-06-14T03:03:22;101653.11;;;25.44;30.81
79538;BME280;68989;52.032;5.152;2023-06-14T03:05:49;101654.03;;;25.40;30.85
79538;BME280;68989;52.032;5.152;2023-06-14T03:08:17;101656.55;;;25.35;30.94
79538;BME280;68989;52.032;5.152;2023-06-14T03:10:46;101660.67;;;25.36;30.90
79538;BME280;68989;52.032;5.152;2023-06-14T03:13:13;101661.36;;;25.34;30.92
79538;BME280;68989;52.032;5.152;2023-06-14T03:15:41;101663.80;;;25.32;30.89
79538;BME280;68989;52.032;5.152;2023-06-14T03:18:08;101665.85;;;25.30;31.02
79538;BME280;68989;52.032;5.152;2023-06-14T03:20:36;101664.77;;;25.34;30.84
79538;BME280;68989;52.032;5.152;2023-06-14T03:23:03;101666.25;;;25.37;30.77
79538;BME280;68989;52.032;5.152;2023-06-14T03:25:30;101666.41;;;25.39;30.77
79538;BME280;68989;52.032;5.152;2023-06-14T03:27:57;101670.82;;;25.37;30.87
79538;BME280;68989;52.032;5.152;2023-06-14T03:30:25;101671.35;;;25.30;30.88
79538;BME280;68989;52.032;5.152;2023-06-14T03:32:52;101677.11;;;25.29;30.84
79538;BME280;68989;52.032;5.152;2023-06-14T03:35:19;101678.44;;;25.28;30.82
79538;BME280;68989;52.032;5.152;2023-06-14T03:37:46;101683.43;;;25.32;30.80
79538;BME280;68989;52.032;5.152;2023-06-14T03:40:18;101682.72;;;25.29;30.84
79538;BME280;68989;52.032;5.152;2023-06-14T03:42:46;101684.52;;;25.24;30.94
79538;BME280;68989;52.032;5.152;2023-06-14T03:45:13;101686.69;;;25.13;31.08
79538;BME280;68989;52.032;5.152;2023-06-14T03:47:40;101689.34;;;25.01;31.41
79538;BME280;68989;52.032;5.152;2023-06-14T03:50:07;101691.40;;;24.93;31.48
79538;BME280;68989;52.032;5.152;2023-06-14T03:52:34;101689.86;;;24.87;31.52
79538;BME280;68989;52.032;5.152;2023-06-14T03:55:01;101693.63;;;24.87;31.34
79538;BME280;68989;52.032;5.152;2023-06-14T03:57:30;101693.87;;;24.90;31.45
79538;BME280;68989;52.032;5.152;2023-06-14T03:59:57;101696.18;;;24.92;31.47
79538;BME280;68989;52.032;5.152;2023-06-14T04:02:23;101698.00;;;24.91;31.41
79538;BME280;68989;52.032;5.152;2023-06-14T04:04:50;101696.09;;;24.89;31.49
79538;BME280;68989;52.032;5.152;2023-06-14T04:07:17;101699.79;;;24.88;31.59
79538;BME280;68989;52.032;5.152;2023-06-14T04:09:44;101702.75;;;24.85;31.60
79538;BME280;68989;52.032;5.152;2023-06-14T04:12:11;101703.63;;;24.82;31.58
79538;BME280;68989;52.032;5.152;2023-06-14T04:14:39;101707.78;;;24.82;31.61
79538;BME280;68989;52.032;5.152;2023-06-14T04:17:06;101706.48;;;24.81;31.56
79538;BME280;68989;52.032;5.152;2023-06-14T04:19:33;101708.96;;;24.81;31.65
79538;BME280;68989;52.032;5.152;2023-06-14T04:22:00;101712.29;;;24.80;31.71
79538;BME280;68989;52.032;5.152;2023-06-14T04:24:28;101709.77;;;24.72;31.88
79538;BME280;68989;52.032;5.152;2023-06-14T04:26:55;101712.18;;;24.69;31.96
79538;BME280;68989;52.032;5.152;2023-06-14T04:29:22;101709.64;;;24.67;32.14
79538;BME280;68989;52.032;5.152;2023-06-14T04:31:49;101710.99;;;24.60;32.22
79538;BME280;68989;52.032;5.152;2023-06-14T04:34:16;101708.32;;;24.58;32.21
79538;BME280;68989;52.032;5.152;2023-06-14T04:36:43;101715.46;;;24.57;32.34
79538;BME280;68989;52.032;5.152;2023-06-14T04:39:11;101714.51;;;24.63;32.33
79538;BME280;68989;52.032;5.152;2023-06-14T04:41:38;101716.43;;;24.65;32.24
79538;BME280;68989;52.032;5.152;2023-06-14T04:44:05;101719.59;;;24.68;32.32
79538;BME280;68989;52.032;5.152;2023-06-14T04:46:32;101724.25;;;24.67;32.51
79538;BME280;68989;52.032;5.152;2023-06-14T04:48:59;101722.95;;;24.73;32.47
79538;BME280;68989;52.032;5.152;2023-06-14T04:51:26;101725.87;;;24.81;32.22
79538;BME280;68989;52.032;5.152;2023-06-14T04:53:53;101726.40;;;24.81;32.34
79538;BME280;68989;52.032;5.152;2023-06-14T04:56:20;101727.11;;;24.80;32.42
79538;BME280;68989;52.032;5.152;2023-06-14T04:58:47;101729.98;;;24.82;32.37
79538;BME280;68989;52.032;5.152;2023-06-14T05:01:13;101730.28;;;24.91;32.27
79538;BME280;68989;52.032;5.152;2023-06-14T05:03:40;101726.94;;;25.00;32.18
79538;BME280;68989;52.032;5.152;2023-06-14T05:06:07;101727.91;;;25.07;32.13
79538;BME280;68989;52.032;5.152;2023-06-14T05:08:34;101728.65;;;25.09;32.10
79538;BME280;68989;52.032;5.152;2023-06-14T05:11:01;101730.61;;;25.16;32.12
79538;BME280;68989;52.032;5.152;2023-06-14T05:13:27;101732.11;;;25.20;32.03
79538;BME280;68989;52.032;5.152;2023-06-14T05:15:54;101732.62;;;25.16;32.10
79538;BME280;68989;52.032;5.152;2023-06-14T05:18:21;101733.96;;;25.22;32.29
79538;BME280;68989;52.032;5.152;2023-06-14T05:20:48;101734.09;;;25.35;31.97
79538;BME280;68989;52.032;5.152;2023-06-14T05:23:15;101734.21;;;25.42;32.04
79538;BME280;68989;52.032;5.152;2023-06-14T05:25:43;101738.37;;;25.36;31.96
79538;BME280;68989;52.032;5.152;2023-06-14T05:28:10;101737.88;;;25.42;32.00
79538;BME280;68989;52.032;5.152;2023-06-14T05:30:38;101738.20;;;25.45;31.98
79538;BME280;68989;52.032;5.152;2023-06-14T05:33:05;101739.44;;;25.59;31.93
79538;BME280;68989;52.032;5.152;2023-06-14T05:35:32;101738.98;;;25.75;31.71
79538;BME280;68989;52.032;5.152;2023-06-14T05:38:00;101742.55;;;25.88;31.55
79538;BME280;68989;52.032;5.152;2023-06-14T05:40:27;101737.69;;;25.90;31.28
79538;BME280;68989;52.032;5.152;2023-06-14T05:42:54;101741.08;;;25.97;31.32
79538;BME280;68989;52.032;5.152;2023-06-14T05:45:21;101744.57;;;26.03;31.02
79538;BME280;68989;52.032;5.152;2023-06-14T05:47:47;101748.61;;;26.10;30.92
79538;BME280;68989;52.032;5.152;2023-06-14T05:50:15;101749.70;;;26.18;31.00
79538;BME280;68989;52.032;5.152;2023-06-14T05:52:42;101754.91;;;26.28;30.81
79538;BME280;68989;52.032;5.152;2023-06-14T05:55:09;101754.34;;;26.38;30.70
79538;BME280;68989;52.032;5.152;2023-06-14T05:57:36;101756.56;;;26.53;30.65
79538;BME280;68989;52.032;5.152;2023-06-14T06:00:06;101761.28;;;26.75;30.39
79538;BME280;68989;52.032;5.152;2023-06-14T06:02:34;101761.17;;;26.84;30.06
79538;BME280;68989;52.032;5.152;2023-06-14T06:05:01;101760.20;;;26.89;30.03
79538;BME280;68989;52.032;5.152;2023-06-14T06:07:28;101762.45;;;27.01;29.91
79538;BME280;68989;52.032;5.152;2023-06-14T06:09:54;101762.02;;;26.93;29.67
79538;BME280;68989;52.032;5.152;2023-06-14T06:12:21;101763.24;;;26.87;29.94
79538;BME280;68989;52.032;5.152;2023-06-14T06:14:48;101763.12;;;26.88;30.19
79538;BME280;68989;52.032;5.152;2023-06-14T06:17:15;101769.21;;;27.05;30.13
79538;BME280;68989;52.032;5.152;2023-06-14T06:19:43;101766.04;;;27.27;29.91
79538;BME280;68989;52.032;5.152;2023-06-14T06:22:10;101770.80;;;27.53;29.63
79538;BME280;68989;52.032;5.152;2023-06-14T06:24:36;101769.34;;;27.77;29.42
79538;BME280;68989;52.032;5.152;2023-06-14T06:27:03;101771.77;;;28.07;29.13
79538;BME280;68989;52.032;5.152;2023-06-14T06:29:31;101769.17;;;28.22;28.54
79538;BME280;68989;52.032;5.152;2023-06-14T06:31:57;101772.99;;;28.33;28.65
79538;BME280;68989;52.032;5.152;2023-06-14T06:34:25;101776.36;;;28.49;28.38
79538;BME280;68989;52.032;5.152;2023-06-14T06:36:52;101775.70;;;28.60;28.17
79538;BME280;68989;52.032;5.152;2023-06-14T06:39:18;101780.36;;;28.70;27.96
79538;BME280;68989;52.032;5.152;2023-06-14T06:41:45;101781.84;;;28.76;28.11
79538;BME280;68989;52.032;5.152;2023-06-14T06:44:12;101779.94;;;28.90;27.69
79538;BME280;68989;52.032;5.152;2023-06-14T06:46:40;101785.93;;;29.01;27.55
79538;BME280;68989;52.032;5.152;2023-06-14T06:49:06;101787.23;;;29.05;27.62
79538;BME280;68989;52.032;5.152;2023-06-14T06:51:35;101791.64;;;29.09;27.71
79538;BME280;68989;52.032;5.152;2023-06-14T06:54:03;101794.45;;;29.09;27.57
79538;BME280;68989;52.032;5.152;2023-06-14T06:56:30;101797.31;;;29.17;27.79
79538;BME280;68989;52.032;5.152;2023-06-14T06:58:57;101800.17;;;29.40;27.57
79538;BME280;68989;52.032;5.152;2023-06-14T07:01:24;101796.20;;;29.64;27.25
79538;BME280;68989;52.032;5.152;2023-06-14T07:03:52;101799.61;;;29.71;26.88
79538;BME280;68989;52.032;5.152;2023-06-14T07:06:19;101800.32;;;29.86;26.92
79538;BME280;68989;52.032;5.152;2023-06-14T07:08:46;101802.10;;;30.07;26.65
79538;BME280;68989;52.032;5.152;2023-06-14T07:11:14;101805.67;;;30.23;26.33
79538;BME280;68989;52.032;5.152;2023-06-14T07:13:41;101805.56;;;30.39;26.09
79538;BME280;68989;52.032;5.152;2023-06-14T07:16:09;101810.19;;;30.54;26.17
79538;BME280;68989;52.032;5.152;2023-06-14T07:18:36;101811.78;;;30.70;25.53
79538;BME280;68989;52.032;5.152;2023-06-14T07:21:03;101811.60;;;30.75;25.49
79538;BME280;68989;52.032;5.152;2023-06-14T07:23:29;101809.70;;;30.91;25.66
79538;BME280;68989;52.032;5.152;2023-06-14T07:25:56;101808.05;;;31.16;25.54
79538;BME280;68989;52.032;5.152;2023-06-14T07:28:24;101809.01;;;31.43;25.34
79538;BME280;68989;52.032;5.152;2023-06-14T07:30:51;101811.67;;;31.70;24.82
79538;BME280;68989;52.032;5.152;2023-06-14T07:33:17;101813.02;;;31.91;24.42
79538;BME280;68989;52.032;5.152;2023-06-14T07:35:45;101821.15;;;31.87;23.77
79538;BME280;68989;52.032;5.152;2023-06-14T07:38:12;101823.66;;;31.93;24.25
79538;BME280;68989;52.032;5.152;2023-06-14T07:40:40;101824.28;;;32.01;23.90
79538;BME280;68989;52.032;5.152;2023-06-14T07:43:06;101824.86;;;32.15;24.12
79538;BME280;68989;52.032;5.152;2023-06-14T07:45:33;101824.90;;;32.23;23.74
79538;BME280;68989;52.032;5.152;2023-06-14T07:48:01;101827.47;;;32.18;23.47
79538;BME280;68989;52.032;5.152;2023-06-14T07:50:27;101827.60;;;32.24;23.72
79538;BME280;68989;52.032;5.152;2023-06-14T07:52:54;101832.73;;;32.39;23.44
79538;BME280;68989;52.032;5.152;2023-06-14T07:55:21;101833.65;;;32.49;23.49
79538;BME280;68989;52.032;5.152;2023-06-14T07:57:48;101832.93;;;32.64;23.30
79538;BME280;68989;52.032;5.152;2023-06-14T08:00:16;101836.43;;;32.86;23.19
79538;BME280;68989;52.032;5.152;2023-06-14T08:02:43;101837.44;;;33.09;23.11
79538;BME280;68989;52.032;5.152;2023-06-14T08:05:11;101840.18;;;33.33;22.89
79538;BME280;68989;52.032;5.152;2023-06-14T08:07:38;101841.30;;;33.52;22.69
79538;BME280;68989;52.032;5.152;2023-06-14T08:10:06;101844.81;;;33.61;22.01
79538;BME280;68989;52.032;5.152;2023-06-14T08:12:34;101842.58;;;33.78;22.29
79538;BME280;68989;52.032;5.152;2023-06-14T08:15:02;101838.67;;;33.99;21.72
79538;BME280;68989;52.032;5.152;2023-06-14T08:17:29;101840.80;;;34.20;21.47
79538;BME280;68989;52.032;5.152;2023-06-14T08:19:56;101833.91;;;34.42;21.50
79538;BME280;68989;52.032;5.152;2023-06-14T08:22:24;101833.71;;;34.45;20.72
79538;BME280;68989;52.032;5.152;2023-06-14T08:24:52;101823.91;;;34.39;20.64
79538;BME280;68989;52.032;5.152;2023-06-14T08:27:19;101829.22;;;34.40;20.73
79538;BME280;68989;52.032;5.152;2023-06-14T08:29:46;101830.07;;;34.50;20.22
79538;BME280;68989;52.032;5.152;2023-06-14T08:32:13;101827.55;;;34.67;21.22
79538;BME280;68989;52.032;5.152;2023-06-14T08:34:40;101825.85;;;34.86;20.43
79538;BME280;68989;52.032;5.152;2023-06-14T08:37:07;101822.22;;;35.04;19.97
79538;BME280;68989;52.032;5.152;2023-06-14T08:39:34;101825.38;;;35.15;19.79
79538;BME280;68989;52.032;5.152;2023-06-14T08:42:01;101825.26;;;35.25;19.91
79538;BME280;68989;52.032;5.152;2023-06-14T08:44:28;101827.54;;;35.34;19.37
79538;BME280;68989;52.032;5.152;2023-06-14T08:46:56;101827.03;;;35.45;19.50
79538;BME280;68989;52.032;5.152;2023-06-14T08:49:25;101824.12;;;35.49;19.17
79538;BME280;68989;52.032;5.152;2023-06-14T08:51:57;101824.88;;;35.60;19.38
79538;BME280;68989;52.032;5.152;2023-06-14T08:54:26;101819.77;;;35.78;19.66
79538;BME280;68989;52.032;5.152;2023-06-14T08:56:54;101824.12;;;36.04;19.43
79538;BME280;68989;52.032;5.152;2023-06-14T08:59:21;101825.82;;;36.25;19.04
79538;BME280;68989;52.032;5.152;2023-06-14T09:01:49;101822.98;;;36.47;18.26
79538;BME280;68989;52.032;5.152;2023-06-14T09:04:16;101819.67;;;36.55;17.96
79538;BME280;68989;52.032;5.152;2023-06-14T09:06:43;101824.03;;;36.62;17.98
79538;BME280;68989;52.032;5.152;2023-06-14T09:09:11;101816.86;;;36.70;17.98
79538;BME280;68989;52.032;5.152;2023-06-14T09:11:42;101819.45;;;36.70;17.91
79538;BME280;68989;52.032;5.152;2023-06-14T09:14:09;101825.28;;;36.54;17.49
79538;BME280;68989;52.032;5.152;2023-06-14T09:16:37;101827.40;;;36.32;17.58
79538;BME280;68989;52.032;5.152;2023-06-14T09:19:04;101829.10;;;36.27;17.41
79538;BME280;68989;52.032;5.152;2023-06-14T09:21:34;101834.12;;;35.99;16.88
79538;BME280;68989;52.032;5.152;2023-06-14T09:24:01;101830.24;;;35.76;17.43
79538;BME280;68989;52.032;5.152;2023-06-14T09:26:28;101836.59;;;35.77;17.91
79538;BME280;68989;52.032;5.152;2023-06-14T09:28:55;101832.96;;;35.92;17.90
79538;BME280;68989;52.032;5.152;2023-06-14T09:31:23;101838.83;;;35.83;17.46
79538;BME280;68989;52.032;5.152;2023-06-14T09:33:51;101834.77;;;35.63;17.48
79538;BME280;68989;52.032;5.152;2023-06-14T09:36:21;101835.00;;;35.36;17.77
79538;BME280;68989;52.032;5.152;2023-06-14T09:38:52;101835.16;;;35.26;18.05
79538;BME280;68989;52.032;5.152;2023-06-14T09:41:20;101831.88;;;35.42;18.30
79538;BME280;68989;52.032;5.152;2023-06-14T09:43:47;101837.41;;;35.65;18.08
79538;BME280;68989;52.032;5.152;2023-06-14T09:46:15;101836.67;;;35.60;17.54
79538;BME280;68989;52.032;5.152;2023-06-14T09:48:42;101836.03;;;35.55;17.59
79538;BME280;68989;52.032;5.152;2023-06-14T09:51:10;101838.35;;;35.72;17.96
79538;BME280;68989;52.032;5.152;2023-06-14T09:53:41;101839.42;;;35.94;17.54
79538;BME280;68989;52.032;5.152;2023-06-14T09:56:10;101837.14;;;36.03;17.31
79538;BME280;68989;52.032;5.152;2023-06-14T09:58:39;101835.38;;;36.08;17.14
79538;BME280;68989;52.032;5.152;2023-06-14T10:01:08;101841.08;;;35.90;17.24
79538;BME280;68989;52.032;5.152;2023-06-14T10:03:36;101838.58;;;36.04;17.55
79538;BME280;68989;52.032;5.152;2023-06-14T10:06:07;101834.82;;;36.39;17.54
79538;BME280;68989;52.032;5.152;2023-06-14T10:08:36;101830.35;;;36.73;17.00
79538;BME280;68989;52.032;5.152;2023-06-14T10:11:04;101828.98;;;36.97;16.42
79538;BME280;68989;52.032;5.152;2023-06-14T10:13:33;101832.83;;;37.06;16.20
79538;BME280;68989;52.032;5.152;2023-06-14T10:16:09;101830.16;;;37.01;16.38
79538;BME280;68989;52.032;5.152;2023-06-14T10:18:45;101821.45;;;37.17;16.69
79538;BME280;68989;52.032;5.152;2023-06-14T10:21:21;101826.41;;;37.32;16.54
79538;BME280;68989;52.032;5.152;2023-06-14T10:23:50;101827.90;;;37.51;16.62
79538;BME280;68989;52.032;5.152;2023-06-14T10:26:20;101832.48;;;37.79;15.76
79538;BME280;68989;52.032;5.152;2023-06-14T10:28:56;101827.64;;;38.10;15.67
79538;BME280;68989;52.032;5.152;2023-06-14T10:31:39;101823.98;;;37.99;15.40
79538;BME280;68989;52.032;5.152;2023-06-14T10:34:06;101831.40;;;37.90;15.58
79538;BME280;68989;52.032;5.152;2023-06-14T10:36:34;101830.39;;;37.94;15.62
79538;BME280;68989;52.032;5.152;2023-06-14T10:39:05;101828.95;;;38.12;15.13
79538;BME280;68989;52.032;5.152;2023-06-14T10:41:36;101827.52;;;38.32;15.20
79538;BME280;68989;52.032;5.152;2023-06-14T10:45:06;101824.99;;;38.56;15.00
79538;BME280;68989;52.032;5.152;2023-06-14T10:47:34;101825.75;;;38.81;14.58
79538;BME280;68989;52.032;5.152;2023-06-14T10:50:06;101829.22;;;38.60;14.75
79538;BME280;68989;52.032;5.152;2023-06-14T10:52:35;101833.10;;;38.40;14.66
79538;BME280;68989;52.032;5.152;2023-06-14T10:55:09;101829.62;;;38.30;14.77
79538;BME280;68989;52.032;5.152;2023-06-14T10:57:38;101834.72;;;38.11;15.01
79538;BME280;68989;52.032;5.152;2023-06-14T11:00:07;101828.51;;;38.25;15.34
79538;BME280;68989;52.032;5.152;2023-06-14T11:02:53;101832.38;;;38.33;14.92
79538;BME280;68989;52.032;5.152;2023-06-14T11:05:28;101831.87;;;38.14;15.56
79538;BME280;68989;52.032;5.152;2023-06-14T11:08:06;101823.18;;;38.26;15.53
79538;BME280;68989;52.032;5.152;2023-06-14T11:10:40;101819.14;;;38.49;15.27
79538;BME280;68989;52.032;5.152;2023-06-14T11:13:08;101823.28;;;38.65;15.09
79538;BME280;68989;52.032;5.152;2023-06-14T11:15:36;101819.28;;;38.77;14.93
79538;BME280;68989;52.032;5.152;2023-06-14T11:18:06;101819.27;;;38.79;14.80
79538;BME280;68989;52.032;5.152;2023-06-14T11:20:34;101825.31;;;38.75;14.59
79538;BME280;68989;52.032;5.152;2023-06-14T11:23:02;101817.74;;;38.82;14.56
79538;BME280;68989;52.032;5.152;2023-06-14T11:25:30;101808.14;;;39.01;14.94
79538;BME280;68989;52.032;5.152;2023-06-14T11:27:58;101811.58;;;39.10;14.73
79538;BME280;68989;52.032;5.152;2023-06-14T11:30:25;101809.88;;;39.15;14.95
79538;BME280;68989;52.032;5.152;2023-06-14T11:32:54;101803.41;;;39.37;15.16
79538;BME280;68989;52.032;5.152;2023-06-14T11:35:23;101806.49;;;39.45;14.77
79538;BME280;68989;52.032;5.152;2023-06-14T11:37:52;101804.68;;;39.51;14.69
79538;BME280;68989;52.032;5.152;2023-06-14T11:40:20;101798.75;;;39.71;14.58
79538;BME280;68989;52.032;5.152;2023-06-14T11:42:46;101795.99;;;39.88;14.38
79538;BME280;68989;52.032;5.152;2023-06-14T11:45:13;101796.77;;;40.04;14.37
79538;BME280;68989;52.032;5.152;2023-06-14T11:47:40;101803.22;;;39.99;13.84
79538;BME280;68989;52.032;5.152;2023-06-14T11:50:09;101800.45;;;39.93;14.15
79538;BME280;68989;52.032;5.152;2023-06-14T11:52:37;101801.87;;;39.50;14.03
79538;BME280;68989;52.032;5.152;2023-06-14T11:55:06;101798.94;;;39.23;14.30
79538;BME280;68989;52.032;5.152;2023-06-14T11:57:34;101795.51;;;39.28;14.80
79538;BME280;68989;52.032;5.152;2023-06-14T12:00:03;101794.31;;;39.33;14.15
79538;BME280;68989;52.032;5.152;2023-06-14T12:02:31;101796.83;;;39.21;14.65
79538;BME280;68989;52.032;5.152;2023-06-14T12:05:05;101802.65;;;39.47;14.65
79538;BME280;68989;52.032;5.152;2023-06-14T12:07:33;101806.56;;;39.77;13.88
79538;BME280;68989;52.032;5.152;2023-06-14T12:10:04;101795.82;;;39.89;14.02
79538;BME280;68989;52.032;5.152;2023-06-14T12:12:35;101793.38;;;40.14;14.24
79538;BME280;68989;52.032;5.152;2023-06-14T12:15:03;101794.71;;;40.46;14.02
79538;BME280;68989;52.032;5.152;2023-06-14T12:17:32;101797.85;;;40.69;13.84
79538;BME280;68989;52.032;5.152;2023-06-14T12:20:05;101789.39;;;40.59;13.60
79538;BME280;68989;52.032;5.152;2023-06-14T12:22:32;101796.74;;;40.70;14.09
79538;BME280;68989;52.032;5.152;2023-06-14T12:24:59;101797.07;;;40.70;13.92
79538;BME280;68989;52.032;5.152;2023-06-14T12:27:27;101797.65;;;40.32;13.80
79538;BME280;68989;52.032;5.152;2023-06-14T12:29:59;101800.31;;;40.00;13.78
79538;BME280;68989;52.032;5.152;2023-06-14T12:32:26;101801.22;;;39.90;13.80
79538;BME280;68989;52.032;5.152;2023-06-14T12:34:54;101790.64;;;39.95;14.35
79538;BME280;68989;52.032;5.152;2023-06-14T12:37:20;101799.19;;;40.04;13.98
79538;BME280;68989;52.032;5.152;2023-06-14T12:39:47;101795.52;;;39.90;13.97
79538;BME280;68989;52.032;5.152;2023-06-14T12:42:15;101794.76;;;40.00;14.25
79538;BME280;68989;52.032;5.152;2023-06-14T12:44:41;101794.57;;;40.23;14.30
79538;BME280;68989;52.032;5.152;2023-06-14T12:47:08;101790.03;;;40.24;13.80
79538;BME280;68989;52.032;5.152;2023-06-14T12:49:35;101793.57;;;40.32;14.22
79538;BME280;68989;52.032;5.152;2023-06-14T12:52:02;101790.24;;;40.30;13.89
79538;BME280;68989;52.032;5.152;2023-06-14T12:54:30;101788.69;;;40.43;14.14
79538;BME280;68989;52.032;5.152;2023-06-14T12:56:56;101793.12;;;40.58;14.01